sensor_id;sensor_type;location;lat;lon;timestamp;P1;durP1;ratioP1;P2;durP2;ratioP2
13832;SDS011;6987;19.472;-99.276;2023-01-04T00:01:10;3.88;;;1.38;;
13832;SDS011;6987;19.472;-99.276;2023-01-04T00:03:40;5.90;;;1.75;;
13832;SDS011;6987;19.472;-99.276;2023-01-04T00:06:09;6.15;;;1.10;;
13832;SDS011;6987;19.472;-99.276;2023-01-04T00:08:40;1.27;;;1.17;;
13832;SDS011;6987;19.472;-99.276;2023-01-04T00:11:10;1.77;;;1.33;;
13832;SDS011;6987;19.472;-99.276;2023-01-04T00:13:39;0.95;;;0.95;;
13832;SDS011;6987;19.472;-99.276;2023-01-04T00:16:10;2.15;;;1.40;;
13832;SDS011;6987;19.472;-99.276;2023-01-04T00:18:39;1.30;;;1.20;;
13832;SDS011;6987;19.472;-99.276;2023-01-04T00:21:08;1.92;;;0.88;;
13832;SDS011;6987;19.472;-99.276;2023-01-04T00:23:38;1.05;;;0.95;;
13832;SDS011;6987;19.472;-99.276;2023-01-04T00:26:09;1.48;;;1.38;;
13832;SDS011;6987;19.472;-99.276;2023-01-04T00:28:39;1.35;;;1.25;;
13832;SDS011;6987;19.472;-99.276;2023-01-04T00:31:08;1.15;;;1.05;;
13832;SDS011;6987;19.472;-99.276;2023-01-04T00:33:40;1.88;;;1.00;;
13832;SDS011;6987;19.472;-99.276;2023-01-04T00:36:09;2.40;;;1.10;;
13832;SDS011;6987;19.472;-99.276;2023-01-04T00:38:38;2.45;;;0.95;;
13832;SDS011;6987;19.472;-99.276;2023-01-04T00:41:09;1.58;;;1.20;;
13832;SDS011;6987;19.472;-99.276;2023-01-04T00:43:39;1.02;;;1.00;;
13832;SDS011;6987;19.472;-99.276;2023-01-04T00:46:08;1.48;;;1.13;;
13832;SDS011;6987;19.472;-99.276;2023-01-04T00:48:37;2.28;;;1.83;;
13832;SDS011;6987;19.472;-99.276;2023-01-04T00:51:06;5.65;;;1.67;;
13832;SDS011;6987;19.472;-99.276;2023-01-04T00:53:34;2.42;;;1.27;;
13832;SDS011;6987;19.472;-99.276;2023-01-04T00:56:03;2.83;;;1.30;;
13832;SDS011;6987;19.472;-99.276;2023-01-04T00:58:34;2.15;;;1.35;;
13832;SDS011;6987;19.472;-99.276;2023-01-04T01:01:06;1.23;;;1.13;;
13832;SDS011;6987;19.472;-99.276;2023-01-04T01:03:35;1.50;;;1.40;;
13832;SDS011;6987;19.472;-99.276;2023-01-04T01:06:05;1.25;;;1.25;;
13832;SDS011;6987;19.472;-99.276;2023-01-04T01:08:34;1.30;;;1.30;;
13832;SDS011;6987;19.472;-99.276;2023-01-04T01:11:03;2.42;;;1.35;;
13832;SDS011;6987;19.472;-99.276;2023-01-04T01:13:34;1.23;;;1.13;;
13832;SDS011;6987;19.472;-99.276;2023-01-04T01:16:03;1.77;;;1.55;;
13832;SDS011;6987;19.472;-99.276;2023-01-04T01:18:32;2.22;;;1.35;;
13832;SDS011;6987;19.472;-99.276;2023-01-04T01:21:03;0.95;;;0.95;;
13832;SDS011;6987;19.472;-99.276;2023-01-04T01:23:32;1.58;;;1.48;;
13832;SDS011;6987;19.472;-99.276;2023-01-04T01:26:01;9.60;;;3.65;;
13832;SDS011;6987;19.472;-99.276;2023-01-04T01:28:30;3.08;;;2.40;;
13832;SDS011;6987;19.472;-99.276;2023-01-04T01:31:01;4.57;;;1.90;;
13832;SDS011;6987;19.472;-99.276;2023-01-04T01:33:32;2.67;;;2.47;;
13832;SDS011;6987;19.472;-99.276;2023-01-04T01:36:01;9.25;;;3.80;;
13832;SDS011;6987;19.472;-99.276;2023-01-04T01:38:30;8.93;;;7.10;;
13832;SDS011;6987;19.472;-99.276;2023-01-04T01:40:59;9.60;;;7.10;;
13832;SDS011;6987;19.472;-99.276;2023-01-04T01:43:48;12.77;;;7.32;;
13832;SDS011;6987;19.472;-99.276;2023-01-04T01:46:19;12.25;;;7.68;;
13832;SDS011;6987;19.472;-99.276;2023-01-04T01:48:50;9.07;;;7.30;;
13832;SDS011;6987;19.472;-99.276;2023-01-04T01:51:19;11.80;;;7.63;;
13832;SDS011;6987;19.472;-99.276;2023-01-04T01:53:51;11.95;;;7.25;;
13832;SDS011;6987;19.472;-99.276;2023-01-04T01:56:20;15.18;;;7.43;;
13832;SDS011;6987;19.472;-99.276;2023-01-04T01:58:49;10.32;;;6.85;;
13832;SDS011;6987;19.472;-99.276;2023-01-04T02:01:21;11.55;;;6.45;;
13832;SDS011;6987;19.472;-99.276;2023-01-04T02:03:50;9.13;;;6.80;;
13832;SDS011;6987;19.472;-99.276;2023-01-04T02:06:20;8.10;;;5.72;;
13832;SDS011;6987;19.472;-99.276;2023-01-04T02:08:50;8.40;;;5.28;;
13832;SDS011;6987;19.472;-99.276;2023-01-04T02:11:19;8.10;;;5.53;;
13832;SDS011;6987;19.472;-99.276;2023-01-04T02:13:48;10.93;;;6.25;;
13832;SDS011;6987;19.472;-99.276;2023-01-04T02:16:46;13.23;;;7.05;;
13832;SDS011;6987;19.472;-99.276;2023-01-04T02:19:27;10.00;;;6.15;;
13832;SDS011;6987;19.472;-99.276;2023-01-04T02:22:08;15.18;;;5.57;;
13832;SDS011;6987;19.472;-99.276;2023-01-04T02:24:45;12.25;;;5.38;;
13832;SDS011;6987;19.472;-99.276;2023-01-04T02:27:35;8.18;;;5.07;;
13832;SDS011;6987;19.472;-99.276;2023-01-04T02:33:12;7.05;;;4.88;;
13832;SDS011;6987;19.472;-99.276;2023-01-04T02:35:45;10.52;;;5.30;;
13832;SDS011;6987;19.472;-99.276;2023-01-04T02:38:19;10.27;;;5.25;;
13832;SDS011;6987;19.472;-99.276;2023-01-04T02:40:51;11.10;;;5.50;;
13832;SDS011;6987;19.472;-99.276;2023-01-04T02:43:23;9.38;;;4.63;;
13832;SDS011;6987;19.472;-99.276;2023-01-04T02:46:12;13.07;;;5.68;;
13832;SDS011;6987;19.472;-99.276;2023-01-04T02:48:43;7.97;;;4.60;;
13832;SDS011;6987;19.472;-99.276;2023-01-04T02:51:29;7.38;;;5.07;;
13832;SDS011;6987;19.472;-99.276;2023-01-04T02:53:59;6.13;;;5.18;;
13832;SDS011;6987;19.472;-99.276;2023-01-04T02:56:33;10.68;;;6.45;;
13832;SDS011;6987;19.472;-99.276;2023-01-04T02:59:10;15.13;;;6.43;;
13832;SDS011;6987;19.472;-99.276;2023-01-04T03:01:43;8.02;;;4.95;;
13832;SDS011;6987;19.472;-99.276;2023-01-04T03:04:38;16.52;;;6.28;;
13832;SDS011;6987;19.472;-99.276;2023-01-04T03:07:26;10.80;;;6.55;;
13832;SDS011;6987;19.472;-99.276;2023-01-04T03:09:59;12.95;;;5.50;;
13832;SDS011;6987;19.472;-99.276;2023-01-04T03:12:30;10.35;;;5.40;;
13832;SDS011;6987;19.472;-99.276;2023-01-04T03:14:59;10.07;;;5.68;;
13832;SDS011;6987;19.472;-99.276;2023-01-04T03:17:30;7.75;;;4.45;;
13832;SDS011;6987;19.472;-99.276;2023-01-04T03:20:04;7.35;;;4.85;;
13832;SDS011;6987;19.472;-99.276;2023-01-04T03:22:35;8.18;;;4.85;;
13832;SDS011;6987;19.472;-99.276;2023-01-04T03:25:22;8.30;;;4.90;;
13832;SDS011;6987;19.472;-99.276;2023-01-04T03:28:10;7.15;;;4.97;;
13832;SDS011;6987;19.472;-99.276;2023-01-04T03:30:58;8.82;;;4.85;;
13832;SDS011;6987;19.472;-99.276;2023-01-04T03:33:44;7.53;;;5.30;;
13832;SDS011;6987;19.472;-99.276;2023-01-04T03:36:47;4.10;;;3.78;;
13832;SDS011;6987;19.472;-99.276;2023-01-04T03:39:20;7.45;;;4.07;;
13832;SDS011;6987;19.472;-99.276;2023-01-04T03:42:12;5.50;;;3.88;;
13832;SDS011;6987;19.472;-99.276;2023-01-04T03:45:03;6.80;;;4.85;;
13832;SDS011;6987;19.472;-99.276;2023-01-04T03:47:54;9.82;;;4.55;;
13832;SDS011;6987;19.472;-99.276;2023-01-04T03:50:43;4.25;;;3.72;;
13832;SDS011;6987;19.472;-99.276;2023-01-04T03:53:14;5.75;;;3.47;;
13832;SDS011;6987;19.472;-99.276;2023-01-04T03:55:46;3.60;;;3.05;;
13832;SDS011;6987;19.472;-99.276;2023-01-04T03:58:16;4.93;;;3.58;;
13832;SDS011;6987;19.472;-99.276;2023-01-04T04:00:46;5.30;;;4.18;;
13832;SDS011;6987;19.472;-99.276;2023-01-04T04:03:15;7.15;;;3.35;;
13832;SDS011;6987;19.472;-99.276;2023-01-04T04:05:46;4.30;;;3.28;;
13832;SDS011;6987;19.472;-99.276;2023-01-04T04:08:34;4.38;;;3.28;;
13832;SDS011;6987;19.472;-99.276;2023-01-04T04:11:02;6.55;;;3.38;;
13832;SDS011;6987;19.472;-99.276;2023-01-04T04:13:44;5.13;;;3.22;;
13832;SDS011;6987;19.472;-99.276;2023-01-04T04:16:13;6.93;;;3.50;;
13832;SDS011;6987;19.472;-99.276;2023-01-04T04:18:45;3.83;;;3.00;;
13832;SDS011;6987;19.472;-99.276;2023-01-04T04:21:14;6.50;;;3.63;;
13832;SDS011;6987;19.472;-99.276;2023-01-04T04:23:45;6.20;;;3.35;;
13832;SDS011;6987;19.472;-99.276;2023-01-04T04:26:14;5.28;;;3.25;;
13832;SDS011;6987;19.472;-99.276;2023-01-04T04:28:42;7.53;;;3.33;;
13832;SDS011;6987;19.472;-99.276;2023-01-04T04:31:12;3.60;;;3.22;;
13832;SDS011;6987;19.472;-99.276;2023-01-04T04:33:41;4.05;;;3.03;;
13832;SDS011;6987;19.472;-99.276;2023-01-04T04:36:09;4.85;;;3.50;;
13832;SDS011;6987;19.472;-99.276;2023-01-04T04:38:38;5.97;;;3.10;;
13832;SDS011;6987;19.472;-99.276;2023-01-04T04:41:09;4.22;;;3.20;;
13832;SDS011;6987;19.472;-99.276;2023-01-04T04:43:56;2.67;;;2.47;;
13832;SDS011;6987;19.472;-99.276;2023-01-04T04:46:25;3.22;;;2.90;;
13832;SDS011;6987;19.472;-99.276;2023-01-04T04:48:54;5.63;;;3.42;;
13832;SDS011;6987;19.472;-99.276;2023-01-04T04:51:23;6.22;;;3.63;;
13832;SDS011;6987;19.472;-99.276;2023-01-04T04:53:52;3.47;;;2.88;;
13832;SDS011;6987;19.472;-99.276;2023-01-04T04:56:23;4.68;;;2.85;;
13832;SDS011;6987;19.472;-99.276;2023-01-04T04:58:52;6.20;;;3.28;;
13832;SDS011;6987;19.472;-99.276;2023-01-04T05:01:21;5.35;;;3.30;;
13832;SDS011;6987;19.472;-99.276;2023-01-04T05:03:50;3.38;;;3.08;;
13832;SDS011;6987;19.472;-99.276;2023-01-04T05:06:19;6.47;;;4.00;;
13832;SDS011;6987;19.472;-99.276;2023-01-04T05:08:48;9.73;;;3.95;;
13832;SDS011;6987;19.472;-99.276;2023-01-04T05:11:17;5.57;;;3.80;;
13832;SDS011;6987;19.472;-99.276;2023-01-04T05:14:07;12.85;;;4.35;;
13832;SDS011;6987;19.472;-99.276;2023-01-04T05:16:35;5.30;;;4.20;;
13832;SDS011;6987;19.472;-99.276;2023-01-04T05:19:04;3.95;;;3.60;;
13832;SDS011;6987;19.472;-99.276;2023-01-04T05:21:33;5.85;;;4.30;;
13832;SDS011;6987;19.472;-99.276;2023-01-04T05:24:02;6.10;;;4.25;;
13832;SDS011;6987;19.472;-99.276;2023-01-04T05:26:32;5.78;;;4.38;;
13832;SDS011;6987;19.472;-99.276;2023-01-04T05:29:00;6.97;;;4.28;;
13832;SDS011;6987;19.472;-99.276;2023-01-04T05:31:31;16.85;;;5.15;;
13832;SDS011;6987;19.472;-99.276;2023-01-04T05:33:59;11.70;;;4.15;;
13832;SDS011;6987;19.472;-99.276;2023-01-04T05:36:27;4.40;;;3.38;;
13832;SDS011;6987;19.472;-99.276;2023-01-04T05:38:56;4.85;;;3.70;;
13832;SDS011;6987;19.472;-99.276;2023-01-04T05:41:25;6.97;;;3.40;;
13832;SDS011;6987;19.472;-99.276;2023-01-04T05:44:11;5.60;;;3.58;;
13832;SDS011;6987;19.472;-99.276;2023-01-04T05:46:41;4.72;;;3.08;;
13832;SDS011;6987;19.472;-99.276;2023-01-04T05:49:10;3.45;;;3.15;;
13832;SDS011;6987;19.472;-99.276;2023-01-04T05:51:39;6.72;;;2.88;;
13832;SDS011;6987;19.472;-99.276;2023-01-04T05:54:08;3.13;;;2.83;;
13832;SDS011;6987;19.472;-99.276;2023-01-04T05:56:37;3.78;;;2.80;;
13832;SDS011;6987;19.472;-99.276;2023-01-04T05:59:05;3.42;;;2.78;;
13832;SDS011;6987;19.472;-99.276;2023-01-04T06:01:34;4.20;;;3.03;;
13832;SDS011;6987;19.472;-99.276;2023-01-04T06:04:05;3.40;;;3.10;;
13832;SDS011;6987;19.472;-99.276;2023-01-04T06:06:34;8.30;;;3.85;;
13832;SDS011;6987;19.472;-99.276;2023-01-04T06:09:03;4.57;;;3.05;;
13832;SDS011;6987;19.472;-99.276;2023-01-04T06:11:31;5.28;;;3.30;;
13832;SDS011;6987;19.472;-99.276;2023-01-04T06:14:00;5.40;;;3.03;;
13832;SDS011;6987;19.472;-99.276;2023-01-04T06:16:29;7.05;;;3.83;;
13832;SDS011;6987;19.472;-99.276;2023-01-04T06:18:58;5.28;;;2.90;;
13832;SDS011;6987;19.472;-99.276;2023-01-04T06:21:29;4.38;;;3.50;;
13832;SDS011;6987;19.472;-99.276;2023-01-04T06:23:57;3.65;;;2.70;;
13832;SDS011;6987;19.472;-99.276;2023-01-04T06:26:26;5.30;;;3.17;;
13832;SDS011;6987;19.472;-99.276;2023-01-04T06:28:55;3.33;;;3.10;;
13832;SDS011;6987;19.472;-99.276;2023-01-04T06:31:24;3.53;;;3.20;;
13832;SDS011;6987;19.472;-99.276;2023-01-04T06:33:53;3.22;;;3.00;;
13832;SDS011;6987;19.472;-99.276;2023-01-04T06:36:22;4.72;;;2.90;;
13832;SDS011;6987;19.472;-99.276;2023-01-04T06:38:55;4.78;;;2.92;;
13832;SDS011;6987;19.472;-99.276;2023-01-04T06:41:24;6.00;;;2.90;;
13832;SDS011;6987;19.472;-99.276;2023-01-04T06:43:53;3.42;;;2.80;;
13832;SDS011;6987;19.472;-99.276;2023-01-04T06:46:21;4.18;;;3.45;;
13832;SDS011;6987;19.472;-99.276;2023-01-04T06:48:50;2.97;;;2.55;;
13832;SDS011;6987;19.472;-99.276;2023-01-04T06:51:19;3.28;;;2.97;;
13832;SDS011;6987;19.472;-99.276;2023-01-04T06:53:48;4.15;;;3.75;;
13832;SDS011;6987;19.472;-99.276;2023-01-04T06:56:19;4.63;;;3.67;;
13832;SDS011;6987;19.472;-99.276;2023-01-04T06:58:48;3.80;;;3.00;;
13832;SDS011;6987;19.472;-99.276;2023-01-04T07:01:17;3.10;;;2.80;;
13832;SDS011;6987;19.472;-99.276;2023-01-04T07:03:45;3.50;;;2.83;;
13832;SDS011;6987;19.472;-99.276;2023-01-04T07:06:14;3.60;;;3.30;;
13832;SDS011;6987;19.472;-99.276;2023-01-04T07:08:43;4.00;;;3.10;;
13832;SDS011;6987;19.472;-99.276;2023-01-04T07:11:12;5.88;;;2.85;;
13832;SDS011;6987;19.472;-99.276;2023-01-04T07:13:42;2.72;;;2.53;;
13832;SDS011;6987;19.472;-99.276;2023-01-04T07:16:11;2.83;;;2.63;;
13832;SDS011;6987;19.472;-99.276;2023-01-04T07:18:41;2.42;;;2.30;;
13832;SDS011;6987;19.472;-99.276;2023-01-04T07:21:10;6.40;;;2.63;;
13832;SDS011;6987;19.472;-99.276;2023-01-04T07:23:39;3.20;;;2.90;;
13832;SDS011;6987;19.472;-99.276;2023-01-04T07:26:09;3.67;;;3.33;;
13832;SDS011;6987;19.472;-99.276;2023-01-04T07:28:37;3.92;;;3.53;;
13832;SDS011;6987;19.472;-99.276;2023-01-04T07:31:25;3.30;;;2.90;;
13832;SDS011;6987;19.472;-99.276;2023-01-04T07:33:54;3.72;;;3.35;;
13832;SDS011;6987;19.472;-99.276;2023-01-04T07:36:23;5.43;;;3.58;;
13832;SDS011;6987;19.472;-99.276;2023-01-04T07:38:52;4.18;;;3.83;;
13832;SDS011;6987;19.472;-99.276;2023-01-04T07:41:21;4.68;;;3.60;;
13832;SDS011;6987;19.472;-99.276;2023-01-04T07:43:49;4.03;;;3.47;;
13832;SDS011;6987;19.472;-99.276;2023-01-04T07:46:18;3.42;;;3.13;;
13832;SDS011;6987;19.472;-99.276;2023-01-04T07:48:49;3.90;;;2.80;;
13832;SDS011;6987;19.472;-99.276;2023-01-04T07:51:18;3.00;;;2.78;;
13832;SDS011;6987;19.472;-99.276;2023-01-04T07:53:48;3.53;;;2.55;;
13832;SDS011;6987;19.472;-99.276;2023-01-04T07:56:17;3.75;;;2.63;;
13832;SDS011;6987;19.472;-99.276;2023-01-04T07:58:46;2.70;;;2.50;;
13832;SDS011;6987;19.472;-99.276;2023-01-04T08:01:15;2.90;;;2.55;;
13832;SDS011;6987;19.472;-99.276;2023-01-04T08:03:44;3.30;;;2.65;;
13832;SDS011;6987;19.472;-99.276;2023-01-04T08:06:15;3.22;;;2.58;;
13832;SDS011;6987;19.472;-99.276;2023-01-04T08:08:44;3.67;;;2.80;;
13832;SDS011;6987;19.472;-99.276;2023-01-04T08:11:14;2.58;;;2.38;;
13832;SDS011;6987;19.472;-99.276;2023-01-04T08:13:43;3.78;;;3.03;;
13832;SDS011;6987;19.472;-99.276;2023-01-04T08:16:17;2.80;;;2.60;;
13832;SDS011;6987;19.472;-99.276;2023-01-04T08:18:47;6.57;;;2.30;;
13832;SDS011;6987;19.472;-99.276;2023-01-04T08:21:17;3.88;;;2.78;;
13832;SDS011;6987;19.472;-99.276;2023-01-04T08:23:46;3.35;;;2.47;;
13832;SDS011;6987;19.472;-99.276;2023-01-04T08:26:15;4.05;;;3.05;;
13832;SDS011;6987;19.472;-99.276;2023-01-04T08:28:44;3.50;;;3.20;;
13832;SDS011;6987;19.472;-99.276;2023-01-04T08:31:13;3.92;;;2.92;;
13832;SDS011;6987;19.472;-99.276;2023-01-04T08:33:43;2.83;;;2.63;;
13832;SDS011;6987;19.472;-99.276;2023-01-04T08:36:15;6.55;;;2.90;;
13832;SDS011;6987;19.472;-99.276;2023-01-04T08:38:46;7.20;;;2.90;;
13832;SDS011;6987;19.472;-99.276;2023-01-04T08:41:16;3.03;;;2.40;;
13832;SDS011;6987;19.472;-99.276;2023-01-04T08:43:45;4.78;;;2.72;;
13832;SDS011;6987;19.472;-99.276;2023-01-04T08:46:14;2.55;;;2.35;;
13832;SDS011;6987;19.472;-99.276;2023-01-04T08:48:43;3.58;;;2.60;;
13832;SDS011;6987;19.472;-99.276;2023-01-04T08:51:12;4.68;;;2.40;;
13832;SDS011;6987;19.472;-99.276;2023-01-04T08:53:42;3.50;;;2.40;;
13832;SDS011;6987;19.472;-99.276;2023-01-04T08:56:13;3.67;;;2.78;;
13832;SDS011;6987;19.472;-99.276;2023-01-04T08:58:42;3.22;;;2.75;;
13832;SDS011;6987;19.472;-99.276;2023-01-04T09:01:11;3.00;;;2.80;;
13832;SDS011;6987;19.472;-99.276;2023-01-04T09:03:40;5.57;;;3.85;;
13832;SDS011;6987;19.472;-99.276;2023-01-04T09:06:10;3.97;;;3.55;;
13832;SDS011;6987;19.472;-99.276;2023-01-04T09:08:39;11.57;;;3.78;;
13832;SDS011;6987;19.472;-99.276;2023-01-04T09:11:09;3.05;;;2.80;;
13832;SDS011;6987;19.472;-99.276;2023-01-04T09:13:41;3.72;;;3.35;;
13832;SDS011;6987;19.472;-99.276;2023-01-04T09:16:11;3.22;;;3.00;;
13832;SDS011;6987;19.472;-99.276;2023-01-04T09:18:40;5.00;;;3.35;;
13832;SDS011;6987;19.472;-99.276;2023-01-04T09:21:09;5.47;;;3.50;;
13832;SDS011;6987;19.472;-99.276;2023-01-04T09:23:39;3.17;;;2.95;;
13832;SDS011;6987;19.472;-99.276;2023-01-04T09:26:09;4.10;;;3.00;;
13832;SDS011;6987;19.472;-99.276;2023-01-04T09:28:38;5.35;;;3.50;;
13832;SDS011;6987;19.472;-99.276;2023-01-04T09:31:09;4.00;;;3.60;;
13832;SDS011;6987;19.472;-99.276;2023-01-04T09:33:39;4.10;;;3.70;;
13832;SDS011;6987;19.472;-99.276;2023-01-04T09:36:10;7.30;;;4.20;;
13832;SDS011;6987;19.472;-99.276;2023-01-04T09:38:40;7.60;;;4.30;;
13832;SDS011;6987;19.472;-99.276;2023-01-04T09:41:12;7.25;;;5.43;;
13832;SDS011;6987;19.472;-99.276;2023-01-04T09:43:43;4.90;;;4.03;;
13832;SDS011;6987;19.472;-99.276;2023-01-04T09:46:16;10.60;;;5.05;;
13832;SDS011;6987;19.472;-99.276;2023-01-04T09:48:45;9.43;;;5.55;;
13832;SDS011;6987;19.472;-99.276;2023-01-04T09:51:16;7.93;;;5.18;;
13832;SDS011;6987;19.472;-99.276;2023-01-04T09:53:46;8.10;;;5.10;;
13832;SDS011;6987;19.472;-99.276;2023-01-04T09:56:17;8.73;;;5.55;;
13832;SDS011;6987;19.472;-99.276;2023-01-04T09:58:48;9.82;;;6.65;;
13832;SDS011;6987;19.472;-99.276;2023-01-04T10:01:19;10.57;;;7.43;;
13832;SDS011;6987;19.472;-99.276;2023-01-04T10:03:52;9.52;;;7.35;;
13832;SDS011;6987;19.472;-99.276;2023-01-04T10:06:22;17.55;;;7.70;;
13832;SDS011;6987;19.472;-99.276;2023-01-04T10:08:51;7.45;;;6.50;;
13832;SDS011;6987;19.472;-99.276;2023-01-04T10:11:31;7.60;;;5.72;;
13832;SDS011;6987;19.472;-99.276;2023-01-04T10:14:11;10.43;;;5.90;;
13832;SDS011;6987;19.472;-99.276;2023-01-04T10:16:47;11.18;;;6.63;;
13832;SDS011;6987;19.472;-99.276;2023-01-04T10:19:22;11.98;;;5.40;;
13832;SDS011;6987;19.472;-99.276;2023-01-04T10:21:53;5.47;;;4.50;;
13832;SDS011;6987;19.472;-99.276;2023-01-04T10:24:37;7.85;;;4.93;;
13832;SDS011;6987;19.472;-99.276;2023-01-04T10:27:11;5.25;;;4.35;;
13832;SDS011;6987;19.472;-99.276;2023-01-04T10:29:44;3.80;;;3.50;;
13832;SDS011;6987;19.472;-99.276;2023-01-04T10:32:18;4.30;;;3.72;;
13832;SDS011;6987;19.472;-99.276;2023-01-04T10:34:50;4.22;;;3.83;;
13832;SDS011;6987;19.472;-99.276;2023-01-04T10:37:21;4.20;;;3.90;;
13832;SDS011;6987;19.472;-99.276;2023-01-04T10:39:53;6.38;;;3.55;;
13832;SDS011;6987;19.472;-99.276;2023-01-04T10:42:25;6.10;;;3.75;;
13832;SDS011;6987;19.472;-99.276;2023-01-04T10:45:02;4.75;;;3.17;;
13832;SDS011;6987;19.472;-99.276;2023-01-04T10:47:37;4.35;;;3.95;;
13832;SDS011;6987;19.472;-99.276;2023-01-04T10:50:13;4.38;;;3.90;;
13832;SDS011;6987;19.472;-99.276;2023-01-04T10:52:44;4.13;;;3.72;;
13832;SDS011;6987;19.472;-99.276;2023-01-04T10:55:16;3.92;;;3.53;;
13832;SDS011;6987;19.472;-99.276;2023-01-04T10:57:47;4.60;;;4.20;;
13832;SDS011;6987;19.472;-99.276;2023-01-04T11:00:19;7.50;;;4.40;;
13832;SDS011;6987;19.472;-99.276;2023-01-04T11:02:52;8.57;;;3.95;;
13832;SDS011;6987;19.472;-99.276;2023-01-04T11:05:23;4.82;;;4.28;;
13832;SDS011;6987;19.472;-99.276;2023-01-04T11:07:54;4.50;;;4.10;;
13832;SDS011;6987;19.472;-99.276;2023-01-04T11:10:25;6.35;;;4.90;;
13832;SDS011;6987;19.472;-99.276;2023-01-04T11:12:56;5.47;;;3.97;;
13832;SDS011;6987;19.472;-99.276;2023-01-04T11:15:25;4.65;;;4.22;;
13832;SDS011;6987;19.472;-99.276;2023-01-04T11:17:55;9.68;;;4.50;;
13832;SDS011;6987;19.472;-99.276;2023-01-04T11:20:25;9.48;;;4.60;;
13832;SDS011;6987;19.472;-99.276;2023-01-04T11:22:54;9.80;;;4.25;;
13832;SDS011;6987;19.472;-99.276;2023-01-04T11:25:25;4.95;;;4.45;;
13832;SDS011;6987;19.472;-99.276;2023-01-04T11:27:56;5.28;;;4.35;;
13832;SDS011;6987;19.472;-99.276;2023-01-04T11:30:28;5.90;;;4.55;;
13832;SDS011;6987;19.472;-99.276;2023-01-04T11:33:01;8.43;;;4.50;;
13832;SDS011;6987;19.472;-99.276;2023-01-04T11:35:38;6.88;;;3.63;;
13832;SDS011;6987;19.472;-99.276;2023-01-04T11:38:09;4.05;;;3.65;;
13832;SDS011;6987;19.472;-99.276;2023-01-04T11:40:38;6.03;;;3.92;;
13832;SDS011;6987;19.472;-99.276;2023-01-04T11:43:11;5.05;;;3.67;;
13832;SDS011;6987;19.472;-99.276;2023-01-04T11:45:52;3.78;;;3.47;;
13832;SDS011;6987;19.472;-99.276;2023-01-04T11:48:31;4.20;;;3.83;;
13832;SDS011;6987;19.472;-99.276;2023-01-04T11:51:00;6.43;;;4.28;;
13832;SDS011;6987;19.472;-99.276;2023-01-04T11:53:30;7.20;;;4.35;;
13832;SDS011;6987;19.472;-99.276;2023-01-04T11:56:07;8.63;;;4.68;;
13832;SDS011;6987;19.472;-99.276;2023-01-04T11:58:36;4.90;;;4.18;;
13832;SDS011;6987;19.472;-99.276;2023-01-04T12:01:07;8.45;;;4.25;;
13832;SDS011;6987;19.472;-99.276;2023-01-04T12:03:47;7.57;;;4.50;;
13832;SDS011;6987;19.472;-99.276;2023-01-04T12:06:17;6.55;;;4.53;;
13832;SDS011;6987;19.472;-99.276;2023-01-04T12:08:46;4.20;;;3.80;;
13832;SDS011;6987;19.472;-99.276;2023-01-04T12:11:19;7.07;;;4.05;;
13832;SDS011;6987;19.472;-99.276;2023-01-04T12:13:52;3.80;;;3.50;;
13832;SDS011;6987;19.472;-99.276;2023-01-04T12:16:23;7.25;;;4.63;;
13832;SDS011;6987;19.472;-99.276;2023-01-04T12:18:55;3.33;;;3.13;;
13832;SDS011;6987;19.472;-99.276;2023-01-04T12:21:25;5.85;;;4.38;;
13832;SDS011;6987;19.472;-99.276;2023-01-04T12:23:54;6.28;;;4.45;;
13832;SDS011;6987;19.472;-99.276;2023-01-04T12:26:23;4.38;;;3.97;;
13832;SDS011;6987;19.472;-99.276;2023-01-04T12:29:31;7.63;;;4.45;;
13832;SDS011;6987;19.472;-99.276;2023-01-04T12:31:43;5.43;;;4.40;;
13832;SDS011;6987;19.472;-99.276;2023-01-04T12:37:06;7.28;;;4.38;;
13832;SDS011;6987;19.472;-99.276;2023-01-04T12:39:36;4.85;;;4.00;;
13832;SDS011;6987;19.472;-99.276;2023-01-04T12:42:08;5.00;;;4.45;;
13832;SDS011;6987;19.472;-99.276;2023-01-04T12:47:40;12.40;;;4.90;;
13832;SDS011;6987;19.472;-99.276;2023-01-04T12:50:25;5.05;;;3.80;;
13832;SDS011;6987;19.472;-99.276;2023-01-04T12:52:59;12.13;;;4.20;;
13832;SDS011;6987;19.472;-99.276;2023-01-04T12:58:40;8.65;;;4.75;;
13832;SDS011;6987;19.472;-99.276;2023-01-04T13:01:22;6.47;;;3.60;;
13832;SDS011;6987;19.472;-99.276;2023-01-04T13:03:54;6.85;;;4.05;;
13832;SDS011;6987;19.472;-99.276;2023-01-04T13:06:24;6.10;;;4.43;;
13832;SDS011;6987;19.472;-99.276;2023-01-04T13:08:56;4.15;;;3.63;;
13832;SDS011;6987;19.472;-99.276;2023-01-04T13:11:32;6.70;;;3.70;;
13832;SDS011;6987;19.472;-99.276;2023-01-04T13:14:04;19.55;;;4.63;;
13832;SDS011;6987;19.472;-99.276;2023-01-04T13:16:37;13.27;;;4.70;;
13832;SDS011;6987;19.472;-99.276;2023-01-04T13:19:09;18.80;;;4.72;;
13832;SDS011;6987;19.472;-99.276;2023-01-04T13:21:40;5.70;;;4.10;;
13832;SDS011;6987;19.472;-99.276;2023-01-04T13:24:19;8.35;;;4.68;;
13832;SDS011;6987;19.472;-99.276;2023-01-04T13:26:50;9.00;;;4.25;;
13832;SDS011;6987;19.472;-99.276;2023-01-04T13:29:20;4.88;;;4.30;;
13832;SDS011;6987;19.472;-99.276;2023-01-04T13:31:50;12.95;;;4.72;;
13832;SDS011;6987;19.472;-99.276;2023-01-04T13:34:20;8.40;;;4.32;;
13832;SDS011;6987;19.472;-99.276;2023-01-04T13:36:53;6.00;;;4.30;;
13832;SDS011;6987;19.472;-99.276;2023-01-04T13:39:24;10.77;;;4.43;;
13832;SDS011;6987;19.472;-99.276;2023-01-04T13:41:53;6.75;;;4.35;;
13832;SDS011;6987;19.472;-99.276;2023-01-04T13:44:25;7.45;;;4.53;;
13832;SDS011;6987;19.472;-99.276;2023-01-04T13:46:56;9.00;;;4.47;;
13832;SDS011;6987;19.472;-99.276;2023-01-04T13:49:25;17.92;;;4.72;;
13832;SDS011;6987;19.472;-99.276;2023-01-04T13:51:54;5.22;;;3.90;;
13832;SDS011;6987;19.472;-99.276;2023-01-04T13:54:25;6.72;;;4.78;;
13832;SDS011;6987;19.472;-99.276;2023-01-04T13:56:54;10.70;;;4.72;;
13832;SDS011;6987;19.472;-99.276;2023-01-04T13:59:35;6.75;;;4.05;;
13832;SDS011;6987;19.472;-99.276;2023-01-04T14:02:11;6.15;;;4.28;;
13832;SDS011;6987;19.472;-99.276;2023-01-04T14:04:42;12.80;;;4.85;;
13832;SDS011;6987;19.472;-99.276;2023-01-04T14:07:11;8.57;;;4.70;;
13832;SDS011;6987;19.472;-99.276;2023-01-04T14:09:44;7.00;;;4.35;;
13832;SDS011;6987;19.472;-99.276;2023-01-04T14:12:14;6.75;;;5.38;;
13832;SDS011;6987;19.472;-99.276;2023-01-04T14:14:45;7.68;;;4.32;;
13832;SDS011;6987;19.472;-99.276;2023-01-04T14:17:16;14.98;;;4.53;;
13832;SDS011;6987;19.472;-99.276;2023-01-04T14:19:46;8.68;;;5.25;;
13832;SDS011;6987;19.472;-99.276;2023-01-04T14:25:30;6.55;;;5.45;;
13832;SDS011;6987;19.472;-99.276;2023-01-04T14:28:04;9.38;;;4.38;;
13832;SDS011;6987;19.472;-99.276;2023-01-04T14:30:46;5.68;;;4.55;;
13832;SDS011;6987;19.472;-99.276;2023-01-04T14:33:16;4.88;;;4.40;;
13832;SDS011;6987;19.472;-99.276;2023-01-04T14:35:59;4.30;;;3.92;;
13832;SDS011;6987;19.472;-99.276;2023-01-04T14:38:29;7.38;;;4.97;;
13832;SDS011;6987;19.472;-99.276;2023-01-04T14:41:05;8.00;;;4.95;;
13832;SDS011;6987;19.472;-99.276;2023-01-04T14:43:42;8.60;;;4.53;;
13832;SDS011;6987;19.472;-99.276;2023-01-04T14:46:11;9.07;;;4.72;;
13832;SDS011;6987;19.472;-99.276;2023-01-04T14:48:40;6.18;;;4.82;;
13832;SDS011;6987;19.472;-99.276;2023-01-04T14:51:09;5.32;;;4.82;;
13832;SDS011;6987;19.472;-99.276;2023-01-04T14:53:41;13.05;;;5.03;;
13832;SDS011;6987;19.472;-99.276;2023-01-04T14:56:13;13.50;;;5.10;;
13832;SDS011;6987;19.472;-99.276;2023-01-04T14:58:42;10.88;;;5.10;;
13832;SDS011;6987;19.472;-99.276;2023-01-04T15:01:11;11.23;;;5.22;;
13832;SDS011;6987;19.472;-99.276;2023-01-04T15:03:40;16.23;;;5.80;;
13832;SDS011;6987;19.472;-99.276;2023-01-04T15:06:09;17.10;;;6.15;;
13832;SDS011;6987;19.472;-99.276;2023-01-04T15:08:39;15.05;;;6.40;;
13832;SDS011;6987;19.472;-99.276;2023-01-04T15:11:08;17.85;;;5.70;;
13832;SDS011;6987;19.472;-99.276;2023-01-04T15:13:39;10.98;;;5.88;;
13832;SDS011;6987;19.472;-99.276;2023-01-04T15:16:10;7.13;;;5.63;;